Ashton, Iowa
Current Conditions -  °F | °C
As of 10:55 PM on Sunday 23 Nov 2014 (Local Time) from KSHL Reporting Station
Overcast Overcast  
Wind Chill: 14°   Ceiling: 1600
Heat Index: 28°   Visibility: 10mi
Dew Point: 23°   Wind: 24mph
Humidity: 80%   Direction: 310°NW
Pressure: 29.48"   Gusts: NA
Location:  43.31°N, 95.79°W
Report Text: KSHL 240455Z AUTO 31021KT 10SM BKN016 OVC021 M02/M05 A2948 RMK AO2
Loading
Personal Weather Stations






























Interactive Weather Map New forecast layout! Learn more

10-Day Weather Forecast

Advertisements
Track Severe Weather on mobile